Kaklıç Airport

LTFA · İzmir, 土耳其

罗盘
风向 的 风向 120° Kaklıç Airport 17/35
风: 6 kt, 2 beaufort

3 kt

5 kt
改变
0 ft 5.000 10.000 15.000 20.000
Cloud Cloud
FEW 3.500
Cloud Cloud Cloud Cloud
SCT 10.000
Cloud Cloud Cloud Cloud Cloud Cloud
BKN 20.000
METAR LTBL 020050Z 12006KT 9999 FEW035 SCT100 BKN200 13/09 Q1013 NOSIG RMK RWY17 09006KT 040V120

METAR Kaklıç Airport - LTFA

Kaklıç Airport是,土耳其中的小机场。 该机场位于纬度38,51736和经度26,97728。 该机场有一条跑道: 17/35. 本场的ICAO机场代码为LTFA。 机场在Istanbul FIR中。

该航空气象观测是针对Çiğli Airport在2024年3月2日 03:50, 当地时间进行的。

机场观察

风向为120°,速度为6 kt。

可见度为10 km 或者更多。

有几云在3.500 ft的高度, 疏云,零星散落的云朵在10.000 ft的高度 和 碎云在20.000 ft的高度。 破损或更高的上限为20.000 ft。

温度和风寒是13 °C。 露点为9 °C,相对湿度为77%。 海平面上的气压为1013 hPa (QNH)。

白天

今天,太阳从07:41升起,在19:06降落。 这适用于Kaklıç Airport,世界夏令时可能有所不同。 当地时间与世界标准时间之间的时差为+3 小时。 当前,没有夏令时有效。

公司介绍

我们没有关于这个机场的公司信息。

体会

到Vliegles.nl去找飞行课程,跳伞和其他飞行体验。 浏览页面,了解Kaklıç Airport附近所有可用的活动。 你也可以使用搜索功能来寻找你所在地附近的特定飞行课程、跳伞或其他飞行体验。

跑道

Id 标题 侧风 逆风 侧风 %
17/35 175°-355° 5 kt 3 kt 82 %

逆风成分最大的方向会被突出显示,并用于横风计算。 这并不一定意味着这个方向在使用。

乌云

3.500 ft FEW 几云
10.000 ft SCT 疏云,零星散落的云朵
20.000 ft BKN 碎云

温度 & 天气

温度 13 °C
露点 9 °C
相对湿度 77%
Kp-index 1 (0-9)

评论

RWY17 09006KT 040V120

白天

日出
07:41 (3:33)
中午
13:23
日落
19:06

小工具

你想在你的网站上有一个关于Kaklıç Airport的当前航空天气(METAR)的小部件吗?

显示HTML代码
?>